Time;durP1;ratioP1;P1;durP2;ratioP2;P2;SDS_P1;SDS_P2;PMS_P1;PMS_P2;Temp;Humidity;BMP_temperature;BMP_pressure;BME280_temperature;BME280_humidity;BME280_pressure;Samples;Min_cycle;Max_cycle;Signal;HPM_P1;HPM_P2
2022/03/12 00:01:25;;;;;;;27.87;15.40;;;2.80;49.30;;;;;;5052945;28;21008;-58
2022/03/12 00:03:50;;;;;;;31.90;15.70;;;2.80;49.40;;;;;;5061651;28;20656;-58
2022/03/12 00:06:17;;;;;;;28.40;16.07;;;2.70;50.00;;;;;;5066160;28;20174;-57
2022/03/12 00:08:44;;;;;;;31.03;15.77;;;2.70;49.80;;;;;;5061587;28;20728;-60
2022/03/12 00:11:11;;;;;;;28.50;15.53;;;2.70;49.80;;;;;;5057041;28;20420;-60
2022/03/12 00:13:37;;;;;;;28.83;16.03;;;2.60;49.90;;;;;;5068950;28;20464;-59
2022/03/12 00:16:04;;;;;;;30.60;14.87;;;2.70;50.00;;;;;;5064383;28;20451;-59
2022/03/12 00:18:30;;;;;;;32.60;15.37;;;2.60;50.00;;;;;;5059795;28;20250;-59
2022/03/12 00:21:02;;;;;;;28.83;16.57;;;2.70;50.10;;;;;;5069472;28;20547;-59
2022/03/12 00:23:28;;;;;;;29.73;16.43;;;2.60;50.10;;;;;;5067641;28;20442;-58
2022/03/12 00:25:53;;;;;;;36.00;18.43;;;2.60;50.10;;;;;;5061968;28;20421;-59
2022/03/12 00:28:19;;;;;;;31.33;16.70;;;2.60;50.20;;;;;;5067248;28;20437;-58
2022/03/12 00:30:49;;;;;;;28.80;15.40;;;2.60;50.20;;;;;;5066823;28;20259;-58
2022/03/12 00:33:17;;;;;;;32.07;15.23;;;2.60;50.40;;;;;;5058558;28;20179;-58
2022/03/12 00:35:45;;;;;;;37.27;16.97;;;2.60;50.40;;;;;;5065995;28;20922;-59
2022/03/12 00:38:11;;;;;;;27.77;14.53;;;2.60;50.40;;;;;;5073523;28;20432;-59
2022/03/12 00:40:37;;;;;;;35.57;15.73;;;2.60;50.40;;;;;;5068106;28;20456;-58
2022/03/12 00:43:03;;;;;;;33.13;16.57;;;2.60;50.30;;;;;;5066608;28;20213;-59
2022/03/12 00:45:29;;;;;;;26.97;14.77;;;2.60;50.40;;;;;;5065412;28;20456;-58
2022/03/12 00:47:55;;;;;;;33.70;16.20;;;2.60;50.50;;;;;;5066063;28;20726;-58
2022/03/12 00:50:20;;;;;;;28.00;15.10;;;2.50;50.40;;;;;;5062945;28;20202;-59
2022/03/12 00:52:46;;;;;;;25.60;14.53;;;2.50;50.40;;;;;;5066908;28;20262;-58
2022/03/12 00:55:12;;;;;;;27.63;14.60;;;2.50;50.40;;;;;;5072008;28;20178;-58
2022/03/12 00:57:37;;;;;;;28.43;15.50;;;2.50;50.50;;;;;;5073527;28;20174;-58
2022/03/12 01:00:11;;;;;;;29.87;14.90;;;2.50;50.50;;;;;;5058632;28;20202;-59
2022/03/12 01:02:36;;;;;;;27.90;16.00;;;2.50;50.50;;;;;;5063375;28;20642;-60
2022/03/12 01:05:02;;;;;;;29.80;15.43;;;2.50;50.70;;;;;;5070160;28;20413;-59
2022/03/12 01:07:28;;;;;;;28.63;15.40;;;2.50;50.80;;;;;;5069059;28;20180;-58
2022/03/12 01:09:53;;;;;;;27.63;15.90;;;2.50;50.90;;;;;;5072264;28;20189;-58
2022/03/12 01:12:19;;;;;;;30.23;15.67;;;2.50;50.90;;;;;;5086772;28;20170;-58
2022/03/12 01:14:45;;;;;;;31.83;17.10;;;2.50;51.00;;;;;;5069430;28;20658;-58
2022/03/12 01:17:11;;;;;;;26.40;14.90;;;2.40;51.10;;;;;;5069513;28;20213;-58
2022/03/12 01:19:37;;;;;;;36.80;17.10;;;2.40;51.10;;;;;;5066902;28;20271;-58
2022/03/12 01:22:04;;;;;;;34.00;16.97;;;2.40;51.10;;;;;;5062447;28;20205;-58
2022/03/12 01:24:30;;;;;;;34.20;16.73;;;2.40;51.00;;;;;;5062652;28;20941;-59
2022/03/12 01:26:57;;;;;;;29.23;15.80;;;2.40;51.00;;;;;;5071440;28;20424;-58
2022/03/12 01:29:23;;;;;;;35.87;17.30;;;2.30;51.00;;;;;;5072027;28;20437;-58
2022/03/12 01:31:49;;;;;;;26.73;15.20;;;2.40;51.10;;;;;;5066604;28;20428;-58
2022/03/12 01:34:14;;;;;;;31.77;16.87;;;2.40;51.10;;;;;;5065803;28;20970;-58
2022/03/12 01:36:40;;;;;;;28.57;16.90;;;2.30;51.60;;;;;;5071419;28;20190;-59
2022/03/12 01:39:06;;;;;;;31.63;15.30;;;2.30;51.10;;;;;;5062127;28;20222;-58
2022/03/12 01:41:34;;;;;;;29.03;14.63;;;2.30;51.10;;;;;;5066944;28;20202;-58
2022/03/12 01:44:02;;;;;;;30.73;16.37;;;2.30;51.10;;;;;;5071904;28;20167;-57
2022/03/12 01:46:45;;;;;;;28.97;15.63;;;2.30;51.20;;;;;;5069892;28;20429;-59
2022/03/12 01:49:16;;;;;;;28.83;15.73;;;2.20;51.30;;;;;;5070635;28;20436;-59
2022/03/12 01:51:44;;;;;;;26.13;15.40;;;2.10;51.40;;;;;;5068430;28;20931;-57
2022/03/12 01:54:10;;;;;;;29.00;15.10;;;2.10;51.50;;;;;;5066290;28;20907;-59
2022/03/12 01:56:38;;;;;;;25.50;14.47;;;2.10;51.60;;;;;;5067045;28;20416;-59
2022/03/12 01:59:04;;;;;;;25.87;15.10;;;2.10;51.70;;;;;;5061419;28;20457;-58
2022/03/12 02:01:31;;;;;;;25.20;15.17;;;2.10;51.80;;;;;;5050953;28;20453;-58
2022/03/12 02:04:00;;;;;;;30.67;15.83;;;2.00;51.90;;;;;;5054670;28;20520;-57
2022/03/12 02:06:26;;;;;;;30.67;16.60;;;2.10;51.90;;;;;;5071072;28;20424;-58
2022/03/12 02:08:57;;;;;;;27.97;15.47;;;2.00;51.80;;;;;;5062599;28;20452;-59
2022/03/12 02:11:30;;;;;;;33.40;16.67;;;2.00;51.80;;;;;;5055985;28;20922;-59
2022/03/12 02:14:15;;;;;;;43.50;16.37;;;2.00;52.00;;;;;;5078854;28;20862;-58
2022/03/12 02:16:47;;;;;;;30.80;16.47;;;2.00;52.10;;;;;;5065390;28;20554;-57
2022/03/12 02:19:12;;;;;;;30.63;15.33;;;1.90;52.10;;;;;;5055428;28;20455;-58
2022/03/12 02:21:44;;;;;;;31.53;13.97;;;2.00;52.30;;;;;;5069416;28;20463;-58
2022/03/12 02:24:12;;;;;;;34.90;15.40;;;1.90;52.10;;;;;;5063123;28;20177;-57
2022/03/12 02:26:42;;;;;;;37.90;15.90;;;1.90;52.20;;;;;;5071374;28;20476;-57
2022/03/12 02:29:11;;;;;;;32.17;16.90;;;1.80;52.20;;;;;;5070872;28;20443;-58
2022/03/12 02:31:38;;;;;;;30.70;16.53;;;1.80;52.30;;;;;;5057020;28;20433;-59
2022/03/12 02:34:06;;;;;;;35.13;17.73;;;1.80;52.50;;;;;;5070475;28;20460;-59
2022/03/12 02:36:31;;;;;;;34.73;15.23;;;1.80;52.60;;;;;;5070919;28;20421;-58
2022/03/12 02:39:00;;;;;;;29.10;16.67;;;1.80;52.80;;;;;;5095203;22;20448;-59
2022/03/12 02:41:26;;;;;;;27.60;15.73;;;1.70;52.70;;;;;;5099491;27;20197;-59
2022/03/12 02:43:52;;;;;;;27.77;15.37;;;1.70;52.90;;;;;;5109665;27;20750;-59
2022/03/12 02:46:18;;;;;;;34.90;16.90;;;1.70;53.00;;;;;;5110388;28;20481;-59
2022/03/12 02:48:51;;;;;;;30.50;16.60;;;1.70;53.00;;;;;;5101341;28;20178;-58
2022/03/12 02:51:18;;;;;;;33.57;17.30;;;1.70;53.00;;;;;;5079540;28;20436;-59
2022/03/12 02:53:44;;;;;;;26.90;15.70;;;1.60;53.00;;;;;;5077613;28;20428;-59
2022/03/12 02:56:11;;;;;;;29.10;16.17;;;1.60;52.90;;;;;;5079712;28;20464;-60
2022/03/12 02:58:37;;;;;;;33.43;16.77;;;1.60;53.00;;;;;;5094205;28;20229;-60
2022/03/12 03:01:03;;;;;;;32.13;16.30;;;1.60;53.10;;;;;;5074446;28;20462;-59
2022/03/12 03:03:37;;;;;;;32.53;16.93;;;1.50;53.10;;;;;;5082309;28;20417;-64
2022/03/12 03:06:03;;;;;;;33.70;15.47;;;1.60;53.30;;;;;;5082339;28;20425;-60
2022/03/12 03:08:29;;;;;;;28.70;15.07;;;1.50;53.30;;;;;;5080675;28;20432;-60
2022/03/12 03:10:59;;;;;;;37.63;16.60;;;1.50;53.40;;;;;;5097074;28;20435;-64
2022/03/12 03:13:33;;;;;;;31.33;17.60;;;1.50;53.40;;;;;;5096382;28;20527;-60
2022/03/12 03:16:10;;;;;;;35.57;16.53;;;1.50;53.60;;;;;;5083203;28;20518;-60
2022/03/12 03:18:39;;;;;;;32.00;17.13;;;1.50;53.70;;;;;;5078114;28;20488;-60
2022/03/12 03:21:09;;;;;;;30.43;16.73;;;1.50;53.70;;;;;;5074090;28;20466;-60
2022/03/12 03:23:35;;;;;;;33.60;16.40;;;1.50;53.60;;;;;;5077849;28;20811;-59
2022/03/12 03:26:02;;;;;;;28.13;14.73;;;1.50;53.70;;;;;;5068772;28;20431;-59
2022/03/12 03:28:28;;;;;;;29.63;15.97;;;1.40;53.70;;;;;;5074989;28;20937;-60
2022/03/12 03:30:55;;;;;;;30.00;14.63;;;1.40;53.80;;;;;;5074567;28;20472;-59
2022/03/12 03:33:23;;;;;;;29.60;15.93;;;1.40;54.00;;;;;;5069610;28;20478;-60
2022/03/12 03:35:50;;;;;;;28.40;14.80;;;1.40;54.10;;;;;;5076875;28;20465;-60
2022/03/12 03:38:17;;;;;;;32.43;16.77;;;1.50;54.80;;;;;;5095913;28;20425;-60
2022/03/12 03:40:43;;;;;;;30.40;15.50;;;1.50;54.20;;;;;;5116076;28;20463;-60
2022/03/12 03:43:24;;;;;;;28.43;15.17;;;1.50;54.20;;;;;;5082548;28;20477;-59
2022/03/12 03:45:52;;;;;;;28.63;15.83;;;1.50;54.40;;;;;;5075113;28;20468;-61
2022/03/12 03:48:20;;;;;;;32.93;15.93;;;1.40;54.30;;;;;;5086053;28;20514;-60
2022/03/12 03:50:47;;;;;;;31.77;16.43;;;1.40;54.30;;;;;;5101717;28;20471;-60
2022/03/12 03:53:17;;;;;;;27.50;16.10;;;1.40;54.30;;;;;;5102670;28;20512;-59
2022/03/12 03:55:43;;;;;;;28.20;15.60;;;1.40;54.40;;;;;;5109662;28;20417;-60
2022/03/12 03:58:12;;;;;;;27.00;14.93;;;1.50;54.60;;;;;;5100587;28;20489;-59
2022/03/12 04:00:38;;;;;;;26.93;14.73;;;1.50;54.50;;;;;;5094000;28;20460;-60
2022/03/12 04:03:04;;;;;;;30.00;15.63;;;1.50;54.40;;;;;;5092128;28;20449;-60
2022/03/12 04:05:48;;;;;;;28.27;16.30;;;1.40;54.50;;;;;;5079156;28;20175;-61
2022/03/12 04:08:14;;;;;;;26.47;15.30;;;1.40;54.50;;;;;;5070512;28;20423;-60
2022/03/12 04:10:40;;;;;;;35.67;16.33;;;1.40;54.60;;;;;;5072976;28;20446;-59
2022/03/12 04:13:20;;;;;;;29.70;15.90;;;1.40;54.60;;;;;;5079207;28;20189;-60
2022/03/12 04:15:48;;;;;;;33.53;16.37;;;1.40;54.70;;;;;;5098404;28;20173;-59
2022/03/12 04:18:21;;;;;;;27.10;14.50;;;1.40;54.90;;;;;;5089519;28;20499;-59
2022/03/12 04:20:47;;;;;;;27.33;15.07;;;1.40;55.00;;;;;;5079883;28;20455;-59
2022/03/12 04:23:18;;;;;;;25.03;14.17;;;1.40;55.10;;;;;;5073114;28;20426;-59
2022/03/12 04:25:46;;;;;;;35.33;16.17;;;1.50;55.20;;;;;;5075579;28;20935;-60
2022/03/12 04:28:11;;;;;;;34.43;15.83;;;1.40;55.10;;;;;;5067916;28;20419;-59
2022/03/12 04:30:38;;;;;;;32.20;16.83;;;1.40;55.30;;;;;;5079456;28;20534;-60
2022/03/12 04:33:04;;;;;;;34.10;16.70;;;1.40;55.10;;;;;;5090860;28;20174;-59
2022/03/12 04:35:30;;;;;;;33.90;15.23;;;1.40;55.10;;;;;;5075402;28;20515;-60
2022/03/12 04:37:56;;;;;;;32.60;16.17;;;1.40;55.30;;;;;;5102678;28;20441;-60
2022/03/12 04:40:25;;;;;;;28.17;15.50;;;1.40;55.50;;;;;;5094496;28;20523;-60
2022/03/12 04:42:51;;;;;;;28.70;15.00;;;1.40;55.60;;;;;;5089111;28;20423;-58
2022/03/12 04:45:24;;;;;;;37.17;14.87;;;1.40;55.70;;;;;;5083487;28;20420;-59
2022/03/12 04:47:51;;;;;;;26.30;15.00;;;1.40;55.60;;;;;;5088858;28;20924;-59
2022/03/12 04:50:19;;;;;;;33.40;16.30;;;1.40;55.60;;;;;;5087353;28;20565;-58
2022/03/12 04:52:48;;;;;;;33.53;16.57;;;1.40;55.70;;;;;;5094369;28;20428;-59
2022/03/12 04:55:17;;;;;;;33.20;16.20;;;1.40;55.70;;;;;;5118886;28;20418;-59
2022/03/12 04:57:43;;;;;;;28.83;15.87;;;1.40;55.80;;;;;;5103284;28;20405;-59
2022/03/12 05:00:23;;;;;;;30.03;16.10;;;1.50;55.90;;;;;;5088193;28;20449;-58
2022/03/12 05:02:52;;;;;;;30.43;15.63;;;1.50;55.90;;;;;;5079302;28;20410;-58
2022/03/12 05:05:18;;;;;;;27.73;14.47;;;1.50;55.70;;;;;;5075480;28;20426;-58
2022/03/12 05:07:45;;;;;;;30.33;14.90;;;1.50;55.60;;;;;;5087651;28;20695;-59
2022/03/12 05:10:16;;;;;;;27.57;14.63;;;1.50;55.50;;;;;;5074780;28;20258;-59
2022/03/12 05:12:43;;;;;;;27.70;15.33;;;1.50;56.00;;;;;;5086028;28;20419;-58
2022/03/12 05:15:14;;;;;;;34.00;16.13;;;1.50;55.80;;;;;;5084040;28;20423;-58
2022/03/12 05:17:47;;;;;;;29.73;15.53;;;1.50;56.00;;;;;;5076464;28;20466;-59
2022/03/12 05:20:18;;;;;;;34.03;16.90;;;1.50;56.00;;;;;;5074037;28;20470;-58
2022/03/12 05:22:44;;;;;;;31.67;16.27;;;1.50;56.10;;;;;;5084934;28;20419;-58
2022/03/12 05:25:10;;;;;;;29.83;15.03;;;1.50;55.80;;;;;;5080834;28;20506;-59
2022/03/12 05:27:36;;;;;;;31.37;16.17;;;1.60;55.90;;;;;;5085422;28;20444;-60
2022/03/12 05:30:03;;;;;;;29.70;15.87;;;1.50;55.70;;;;;;5083940;28;20447;-58
2022/03/12 05:32:29;;;;;;;28.33;14.73;;;1.50;55.70;;;;;;5082952;28;20265;-58
2022/03/12 05:34:55;;;;;;;33.17;16.20;;;1.50;55.90;;;;;;5072876;28;20443;-59
2022/03/12 05:37:22;;;;;;;29.27;15.17;;;1.50;56.00;;;;;;5075622;28;20350;-57
2022/03/12 05:39:51;;;;;;;24.27;15.30;;;1.50;56.10;;;;;;5105470;28;20220;-59
2022/03/12 05:42:22;;;;;;;31.30;16.10;;;1.50;56.10;;;;;;5099105;28;20492;-59
2022/03/12 05:44:51;;;;;;;31.37;15.80;;;1.50;56.00;;;;;;5108279;27;20438;-59
2022/03/12 05:47:18;;;;;;;29.93;15.63;;;1.50;56.20;;;;;;5072467;28;20416;-59
2022/03/12 05:49:44;;;;;;;30.60;16.73;;;1.60;56.30;;;;;;5086022;28;20450;-58
2022/03/12 05:52:10;;;;;;;27.50;14.53;;;1.60;56.30;;;;;;5078867;28;20419;-60
2022/03/12 05:54:37;;;;;;;27.63;14.17;;;1.60;56.40;;;;;;5081996;28;20184;-60
2022/03/12 05:57:03;;;;;;;30.67;14.23;;;1.50;56.20;;;;;;5071558;28;20484;-59
2022/03/12 05:59:29;;;;;;;24.87;14.03;;;1.50;56.20;;;;;;5073548;28;20599;-59
2022/03/12 06:01:55;;;;;;;26.73;15.17;;;1.50;56.40;;;;;;5081591;28;20479;-60
2022/03/12 06:04:26;;;;;;;25.30;15.03;;;1.50;56.40;;;;;;5083506;28;20519;-59
2022/03/12 06:06:55;;;;;;;33.87;16.13;;;1.40;56.60;;;;;;5082029;28;20438;-60
2022/03/12 06:09:22;;;;;;;29.57;15.00;;;1.50;56.90;;;;;;5081615;28;20445;-60
2022/03/12 06:11:52;;;;;;;32.77;16.07;;;1.50;57.10;;;;;;5070783;28;20436;-59
2022/03/12 06:14:18;;;;;;;34.10;15.77;;;1.60;57.10;;;;;;5083444;28;20425;-59
2022/03/12 06:16:47;;;;;;;30.40;16.13;;;1.60;56.90;;;;;;5090713;28;20494;-60
2022/03/12 06:19:16;;;;;;;33.33;17.00;;;1.60;56.90;;;;;;5082121;28;20434;-60
2022/03/12 06:21:42;;;;;;;30.37;15.80;;;1.70;56.80;;;;;;5093529;28;20538;-59
2022/03/12 06:24:08;;;;;;;33.83;15.60;;;1.70;56.70;;;;;;5108578;28;20457;-59
2022/03/12 06:26:36;;;;;;;35.33;16.50;;;1.80;56.60;;;;;;5094568;28;20503;-59
2022/03/12 06:29:03;;;;;;;31.60;16.60;;;1.80;56.60;;;;;;5072424;28;20255;-60
2022/03/12 06:31:31;;;;;;;29.33;15.03;;;1.80;56.70;;;;;;5077865;28;20870;-59
2022/03/12 06:33:58;;;;;;;34.33;15.60;;;1.80;56.60;;;;;;5069716;28;20498;-59
2022/03/12 06:36:24;;;;;;;31.07;16.57;;;1.80;56.80;;;;;;5086610;28;20414;-58
2022/03/12 06:38:49;;;;;;;41.97;17.80;;;1.90;56.90;;;;;;5088197;28;20999;-60
2022/03/12 06:41:18;;;;;;;30.03;16.30;;;1.90;56.70;;;;;;5070253;28;20498;-60
2022/03/12 06:43:45;;;;;;;36.40;16.97;;;1.90;56.50;;;;;;5070441;28;20233;-60
2022/03/12 06:46:14;;;;;;;29.33;16.20;;;2.00;56.60;;;;;;5068698;28;20503;-59
2022/03/12 06:48:40;;;;;;;31.47;16.70;;;2.00;56.50;;;;;;5072221;28;20486;-60
2022/03/12 06:51:06;;;;;;;33.43;17.80;;;2.00;56.40;;;;;;5071297;28;20557;-60
2022/03/12 06:53:32;;;;;;;29.80;16.50;;;2.10;56.20;;;;;;5090737;28;20953;-60
2022/03/12 06:55:58;;;;;;;37.47;18.10;;;2.10;56.30;;;;;;5084101;28;20582;-62
2022/03/12 06:58:25;;;;;;;31.20;16.63;;;2.20;56.30;;;;;;5068090;28;20425;-60
2022/03/12 07:00:52;;;;;;;32.13;16.60;;;2.20;56.30;;;;;;5076815;28;20458;-59
2022/03/12 07:03:18;;;;;;;28.90;15.50;;;2.30;56.20;;;;;;5077455;28;20413;-58
2022/03/12 07:05:43;;;;;;;37.50;16.93;;;2.30;56.00;;;;;;5070686;28;20799;-59
2022/03/12 07:08:09;;;;;;;34.20;16.50;;;2.40;56.20;;;;;;5079024;28;20503;-59
2022/03/12 07:10:35;;;;;;;26.80;15.73;;;2.40;56.00;;;;;;5079273;28;20198;-60
2022/03/12 07:13:00;;;;;;;38.10;18.87;;;2.50;55.90;;;;;;5075105;28;20177;-59
2022/03/12 07:15:26;;;;;;;32.00;16.23;;;2.50;55.80;;;;;;5076625;28;20177;-59
2022/03/12 07:17:52;;;;;;;35.93;16.70;;;2.60;55.90;;;;;;5070361;28;20192;-59
2022/03/12 07:20:18;;;;;;;37.03;16.67;;;2.70;56.00;;;;;;5072751;28;20454;-56
2022/03/12 07:22:44;;;;;;;31.87;16.70;;;2.80;56.00;;;;;;5073831;28;20437;-56
2022/03/12 07:25:12;;;;;;;32.13;16.20;;;2.90;56.80;;;;;;5075376;28;20454;-56
2022/03/12 07:27:38;;;;;;;30.20;16.27;;;3.00;56.10;;;;;;5065846;28;20426;-58
2022/03/12 07:30:05;;;;;;;29.00;16.50;;;3.10;55.80;;;;;;5075514;28;20451;-58
2022/03/12 07:32:32;;;;;;;36.30;16.73;;;3.20;55.40;;;;;;5079856;28;20426;-59
2022/03/12 07:34:58;;;;;;;29.57;15.43;;;3.30;55.20;;;;;;5075207;28;20432;-61
2022/03/12 07:37:23;;;;;;;33.50;15.97;;;3.40;54.80;;;;;;5072084;28;20431;-59
2022/03/12 07:39:49;;;;;;;30.33;16.33;;;3.40;54.70;;;;;;5069108;28;20451;-59
2022/03/12 07:42:15;;;;;;;31.23;16.33;;;3.50;54.70;;;;;;5077906;28;20262;-57
2022/03/12 07:44:41;;;;;;;30.13;16.53;;;3.60;54.40;;;;;;5067828;28;20597;-59
2022/03/12 07:47:08;;;;;;;29.50;16.50;;;3.60;54.20;;;;;;5077995;28;20181;-58
2022/03/12 07:49:34;;;;;;;29.40;15.10;;;3.70;54.20;;;;;;5074417;28;20504;-60
2022/03/12 07:52:00;;;;;;;37.00;16.63;;;3.80;54.00;;;;;;5070667;28;20507;-57
2022/03/12 07:54:26;;;;;;;30.73;16.20;;;3.80;54.00;;;;;;5076793;28;20442;-59
2022/03/12 07:56:52;;;;;;;34.33;18.03;;;3.90;54.10;;;;;;5068092;28;20428;-61
2022/03/12 07:59:18;;;;;;;32.63;16.80;;;4.00;54.00;;;;;;5072044;28;20460;-58
2022/03/12 08:01:44;;;;;;;28.33;16.10;;;4.10;54.00;;;;;;5073248;28;20198;-58
2022/03/12 08:04:10;;;;;;;30.70;17.10;;;4.20;53.80;;;;;;5070975;28;20421;-60
2022/03/12 08:06:36;;;;;;;31.97;16.70;;;4.30;53.80;;;;;;5066616;28;20987;-58
2022/03/12 08:09:03;;;;;;;38.20;17.40;;;4.40;53.40;;;;;;5072120;28;20181;-60
2022/03/12 08:11:29;;;;;;;30.47;15.73;;;4.60;53.40;;;;;;5075581;28;20564;-58
2022/03/12 08:14:03;;;;;;;31.23;16.80;;;4.70;53.20;;;;;;5080845;28;20935;-58
2022/03/12 08:16:30;;;;;;;32.30;16.00;;;4.80;53.30;;;;;;5073782;28;21915;-58
2022/03/12 08:18:56;;;;;;;31.17;16.27;;;4.90;53.00;;;;;;5071792;28;20432;-58
2022/03/12 08:21:22;;;;;;;29.57;16.90;;;5.00;52.80;;;;;;5074310;28;20456;-59
2022/03/12 08:23:49;;;;;;;32.03;16.80;;;5.10;52.70;;;;;;5070808;28;21038;-59
2022/03/12 08:26:16;;;;;;;30.23;16.10;;;5.20;52.90;;;;;;5078313;28;20417;-59
2022/03/12 08:28:42;;;;;;;32.03;14.87;;;5.30;52.50;;;;;;5094227;28;20924;-58
2022/03/12 08:31:08;;;;;;;33.97;15.57;;;5.50;52.20;;;;;;5070836;28;20455;-58
2022/03/12 08:33:36;;;;;;;30.40;15.50;;;5.50;51.90;;;;;;5077405;28;20433;-56
2022/03/12 08:36:04;;;;;;;34.97;15.30;;;5.70;51.80;;;;;;5074605;28;20421;-57
2022/03/12 08:38:32;;;;;;;31.10;16.20;;;5.80;51.60;;;;;;5073469;28;20980;-58
2022/03/12 08:40:58;;;;;;;29.00;16.10;;;5.90;51.50;;;;;;5064752;22;1098374;-60
2022/03/12 08:43:24;;;;;;;33.23;16.90;;;6.10;51.10;;;;;;5078251;28;20173;-59
2022/03/12 08:45:50;;;;;;;34.73;16.33;;;6.20;50.60;;;;;;5077927;28;20477;-60
2022/03/12 08:48:17;;;;;;;35.30;17.80;;;6.30;50.40;;;;;;5083507;28;20967;-60
2022/03/12 08:50:44;;;;;;;30.97;16.40;;;6.50;50.40;;;;;;5074371;28;20463;-60
2022/03/12 08:53:10;;;;;;;29.73;16.87;;;6.60;50.20;;;;;;5082493;28;20427;-60
2022/03/12 08:55:36;;;;;;;29.37;16.93;;;6.80;49.80;;;;;;5081443;28;21201;-60
2022/03/12 08:58:02;;;;;;;36.43;18.43;;;6.90;49.50;;;;;;5094677;28;20431;-61
2022/03/12 09:00:28;;;;;;;36.60;18.27;;;6.90;49.10;;;;;;5078159;28;20456;-61
2022/03/12 09:02:54;;;;;;;26.97;15.53;;;7.00;48.70;;;;;;5081645;28;20886;-60
2022/03/12 09:05:19;;;;;;;29.47;17.23;;;7.10;48.60;;;;;;5079309;28;20173;-59
2022/03/12 09:07:46;;;;;;;30.30;17.43;;;7.20;48.30;;;;;;5078364;28;20545;-60
2022/03/12 09:10:13;;;;;;;34.43;16.47;;;7.20;48.30;;;;;;5081240;28;20189;-60
2022/03/12 09:12:40;;;;;;;31.10;16.93;;;7.30;48.00;;;;;;5075118;28;20427;-61
2022/03/12 09:15:07;;;;;;;31.63;17.10;;;7.40;48.20;;;;;;5072302;28;20842;-62
2022/03/12 09:17:34;;;;;;;36.17;16.90;;;7.50;48.00;;;;;;5082582;28;20429;-61
2022/03/12 09:20:00;;;;;;;25.00;15.73;;;7.60;47.90;;;;;;5084502;28;20447;-62
2022/03/12 09:22:26;;;;;;;31.77;16.40;;;7.80;48.00;;;;;;5085377;28;21116;-62
2022/03/12 09:24:51;;;;;;;31.07;17.17;;;7.90;48.00;;;;;;5086013;28;20432;-61
2022/03/12 09:27:17;;;;;;;32.50;16.70;;;8.10;48.00;;;;;;5082118;28;20501;-61
2022/03/12 09:29:43;;;;;;;33.73;17.33;;;8.20;47.80;;;;;;5082414;28;20244;-62
2022/03/12 09:32:09;;;;;;;28.13;15.90;;;8.40;47.80;;;;;;5087885;28;20231;-61
2022/03/12 09:34:35;;;;;;;33.67;15.70;;;8.60;48.00;;;;;;5082181;28;20182;-61
2022/03/12 09:37:03;;;;;;;27.43;15.93;;;8.80;48.60;;;;;;5085693;28;20431;-60
2022/03/12 09:39:28;;;;;;;34.40;17.17;;;9.00;48.40;;;;;;5082351;28;20452;-61
2022/03/12 09:41:54;;;;;;;29.13;16.83;;;9.20;48.00;;;;;;5081343;28;20459;-61
2022/03/12 09:44:20;;;;;;;31.13;15.80;;;9.40;47.60;;;;;;5085979;28;20212;-61
2022/03/12 09:46:46;;;;;;;37.83;18.80;;;9.60;47.10;;;;;;5085978;28;20163;-62
2022/03/12 09:49:11;;;;;;;41.57;18.57;;;9.80;46.50;;;;;;5085557;28;20174;-61
2022/03/12 09:51:41;;;;;;;35.53;19.43;;;9.90;45.70;;;;;;5086404;28;20500;-62
2022/03/12 09:54:07;;;;;;;40.90;22.03;;;10.00;44.60;;;;;;5087351;28;20178;-63
2022/03/12 09:56:32;;;;;;;49.33;26.07;;;10.10;44.30;;;;;;5083621;28;20494;-62
2022/03/12 09:58:58;;;;;;;46.77;23.13;;;10.10;44.20;;;;;;5083995;28;20238;-62
2022/03/12 10:01:24;;;;;;;43.00;22.57;;;10.10;43.80;;;;;;5077206;28;20260;-63
2022/03/12 10:03:50;;;;;;;75.67;40.57;;;10.10;43.40;;;;;;5082379;28;20170;-60
2022/03/12 10:06:16;;;;;;;43.80;25.00;;;10.20;43.40;;;;;;5085821;28;20170;-62
2022/03/12 10:08:43;;;;;;;40.17;21.27;;;10.30;43.00;;;;;;5083163;28;20673;-63
2022/03/12 10:11:09;;;;;;;51.53;25.93;;;10.30;42.70;;;;;;5082726;28;20596;-62
2022/03/12 10:13:35;;;;;;;36.03;18.33;;;10.40;42.30;;;;;;5077943;28;23104;-61
2022/03/12 10:16:01;;;;;;;32.07;16.87;;;10.50;42.20;;;;;;5083611;28;20469;-64
2022/03/12 10:18:27;;;;;;;29.50;15.80;;;10.70;42.60;;;;;;5077315;28;20171;-62
2022/03/12 10:20:54;;;;;;;39.23;16.80;;;10.80;42.80;;;;;;5078868;28;20815;-63
2022/03/12 10:23:20;;;;;;;35.53;16.43;;;10.90;42.90;;;;;;5077438;28;20954;-62
2022/03/12 10:25:46;;;;;;;27.23;15.40;;;11.00;42.30;;;;;;5079168;28;20456;-61
2022/03/12 10:28:12;;;;;;;26.57;15.27;;;11.10;42.90;;;;;;5079713;28;20455;-62
2022/03/12 10:30:39;;;;;;;29.60;16.93;;;11.20;42.20;;;;;;5077912;28;20444;-62
2022/03/12 10:33:06;;;;;;;32.60;16.60;;;11.20;42.50;;;;;;5078578;28;20431;-62
2022/03/12 10:35:38;;;;;;;30.73;17.20;;;11.30;42.20;;;;;;5084494;28;20471;-62
2022/03/12 10:38:11;;;;;;;35.70;18.53;;;11.40;42.10;;;;;;5079210;28;20444;-63
2022/03/12 10:40:38;;;;;;;30.43;16.20;;;11.50;41.40;;;;;;5078141;28;20463;-61
2022/03/12 10:43:12;;;;;;;29.13;17.17;;;11.60;41.40;;;;;;5076372;28;20424;-61
2022/03/12 10:45:54;;;;;;;31.63;16.40;;;11.70;41.20;;;;;;5078406;28;20464;-62
2022/03/12 10:48:21;;;;;;;35.77;18.00;;;11.90;41.10;;;;;;5077654;28;20474;-62
2022/03/12 10:50:50;;;;;;;31.30;17.27;;;12.00;40.60;;;;;;5077263;28;20439;-62
2022/03/12 10:53:17;;;;;;;32.30;16.50;;;12.10;40.50;;;;;;5077529;28;20511;-62
2022/03/12 10:55:49;;;;;;;35.53;18.03;;;12.20;40.20;;;;;;5077631;28;20474;-62
2022/03/12 10:58:26;;;;;;;35.60;15.87;;;12.30;40.20;;;;;;5072271;28;20868;-62
2022/03/12 11:00:54;;;;;;;33.00;16.90;;;12.40;39.70;;;;;;5083499;28;20491;-62
2022/03/12 11:03:25;;;;;;;33.30;17.03;;;12.40;40.00;;;;;;5083947;28;20924;-62
2022/03/12 11:05:52;;;;;;;29.70;15.50;;;12.40;39.70;;;;;;5079020;28;20968;-62
2022/03/12 11:08:21;;;;;;;31.40;17.40;;;12.40;40.10;;;;;;5081157;28;20490;-62
2022/03/12 11:11:11;;;;;;;28.60;16.83;;;12.40;40.10;;;;;;5081529;28;20460;-62
2022/03/12 11:13:40;;;;;;;27.90;15.00;;;12.40;39.80;;;;;;5077494;28;20435;-62
2022/03/12 11:16:16;;;;;;;30.33;15.87;;;12.50;40.00;;;;;;5078744;28;20443;-62
2022/03/12 11:19:01;;;;;;;30.73;16.60;;;12.50;40.20;;;;;;5081264;28;20436;-63
2022/03/12 11:21:37;;;;;;;29.33;15.60;;;12.50;40.10;;;;;;5079209;28;21015;-61
2022/03/12 11:24:35;;;;;;;30.73;16.03;;;12.50;40.40;;;;;;5078976;28;20939;-59
2022/03/12 11:27:01;;;;;;;25.50;14.63;;;12.50;40.40;;;;;;5049681;28;21069;-57
2022/03/12 11:29:28;;;;;;;25.50;15.00;;;12.40;40.60;;;;;;5078662;28;20513;-58
2022/03/12 11:31:59;;;;;;;27.90;14.53;;;12.40;40.10;;;;;;5077940;28;20423;-63
2022/03/12 11:34:33;;;;;;;26.20;15.07;;;12.30;39.90;;;;;;5096329;28;20939;-62
2022/03/12 11:37:34;;;;;;;32.27;16.30;;;12.30;40.10;;;;;;5085858;28;20435;-62
2022/03/12 11:39:59;;;;;;;27.87;15.40;;;12.40;40.30;;;;;;5059261;28;20804;-63
2022/03/12 11:42:27;;;;;;;34.40;17.27;;;12.60;39.70;;;;;;5080768;28;20562;-60
2022/03/12 11:44:58;;;;;;;26.57;16.27;;;12.80;39.90;;;;;;5081986;28;20174;-62
2022/03/12 11:47:26;;;;;;;29.30;16.53;;;13.00;39.10;;;;;;5090838;28;20509;-62
2022/03/12 11:49:55;;;;;;;32.03;17.23;;;13.30;39.00;;;;;;5106064;28;20499;-63
2022/03/12 11:52:21;;;;;;;29.73;16.80;;;13.60;38.40;;;;;;5094079;28;21099;-62
2022/03/12 11:54:50;;;;;;;28.83;16.90;;;13.80;38.00;;;;;;5079837;28;20428;-62
2022/03/12 11:57:27;;;;;;;27.27;15.67;;;13.90;37.60;;;;;;5084743;28;20190;-60
2022/03/12 11:59:53;;;;;;;35.27;18.27;;;14.10;38.00;;;;;;5082559;28;20450;-61
2022/03/12 12:02:34;;;;;;;31.37;17.10;;;14.20;37.90;;;;;;5077237;28;20458;-60
2022/03/12 12:05:05;;;;;;;25.70;16.60;;;14.30;37.60;;;;;;5082639;28;21060;-62
2022/03/12 12:07:38;;;;;;;27.63;16.70;;;14.40;37.40;;;;;;5076690;28;20473;-61
2022/03/12 12:10:09;;;;;;;27.93;16.60;;;14.30;37.30;;;;;;5084024;28;20496;-61
2022/03/12 12:12:36;;;;;;;25.37;15.70;;;14.30;37.10;;;;;;5079619;28;20834;-58
2022/03/12 12:15:07;;;;;;;27.33;15.40;;;14.20;37.20;;;;;;5079965;28;20417;-61
2022/03/12 12:17:33;;;;;;;25.80;14.93;;;14.00;37.30;;;;;;5080913;28;20471;-60
2022/03/12 12:20:03;;;;;;;23.93;14.70;;;13.80;37.40;;;;;;5080820;28;20538;-60
2022/03/12 12:22:29;;;;;;;25.53;15.60;;;13.70;37.60;;;;;;5078963;28;20474;-62
2022/03/12 12:24:56;;;;;;;31.27;15.77;;;13.60;37.90;;;;;;5083828;28;21206;-61
2022/03/12 12:27:23;;;;;;;30.97;15.67;;;13.40;38.00;;;;;;5080182;28;20174;-61
2022/03/12 12:29:56;;;;;;;30.43;15.37;;;13.40;38.00;;;;;;5082649;28;20531;-60
2022/03/12 12:32:24;;;;;;;29.00;16.50;;;13.30;38.30;;;;;;5083354;28;20468;-61
2022/03/12 12:35:04;;;;;;;27.13;15.57;;;13.20;38.40;;;;;;5081457;28;20442;-62
2022/03/12 12:37:57;;;;;;;27.90;15.03;;;13.30;38.70;;;;;;5082150;28;20515;-61
2022/03/12 12:40:32;;;;;;;24.97;15.97;;;13.40;39.00;;;;;;5083385;28;20531;-58